Time;durP1;ratioP1;P1;durP2;ratioP2;P2;SDS_P1;SDS_P2;PMS_P1;PMS_P2;Temp;Humidity;BMP_temperature;BMP_pressure;BME280_temperature;BME280_humidity;BME280_pressure;Samples;Min_cycle;Max_cycle;Signal;HPM_P1;HPM_P2
2022/08/07 00:02:15;;;;;;;1.30;1.20;;;;;;;;;;5087123;28;20304;-66
2022/08/07 00:05:09;;;;;;;1.30;1.20;;;;;;;;;;5078099;28;20266;-66
2022/08/07 00:07:37;;;;;;;1.20;1.10;;;;;;;;;;5080858;28;20259;-66
2022/08/07 00:10:08;;;;;;;1.13;1.00;;;;;;;;;;5096237;28;20212;-66
2022/08/07 00:13:01;;;;;;;1.17;1.00;;;;;;;;;;5083530;28;20206;-66
2022/08/07 00:15:42;;;;;;;1.00;1.00;;;;;;;;;;5085624;28;20647;-66
2022/08/07 00:18:34;;;;;;;1.20;1.10;;;;;;;;;;5076847;28;20323;-66
2022/08/07 00:21:04;;;;;;;1.30;1.20;;;;;;;;;;5080336;28;20200;-66
2022/08/07 00:23:55;;;;;;;0.80;0.80;;;;;;;;;;5083960;28;20208;-66
2022/08/07 00:26:25;;;;;;;1.13;1.03;;;;;;;;;;5084346;28;20765;-67
2022/08/07 00:29:16;;;;;;;0.93;0.93;;;;;;;;;;5063986;28;20258;-66
2022/08/07 00:31:50;;;;;;;1.00;1.00;;;;;;;;;;5068778;28;20540;-66
2022/08/07 00:34:29;;;;;;;1.00;0.90;;;;;;;;;;5069660;28;20681;-66
2022/08/07 00:37:02;;;;;;;1.10;1.00;;;;;;;;;;5074638;28;20219;-66
2022/08/07 00:39:36;;;;;;;1.10;1.00;;;;;;;;;;5082578;28;20205;-66
2022/08/07 00:42:12;;;;;;;1.13;1.03;;;;;;;;;;5082647;28;20293;-66
2022/08/07 00:44:42;;;;;;;1.20;1.10;;;;;;;;;;5069246;28;20192;-66
2022/08/07 00:47:17;;;;;;;0.90;0.90;;;;;;;;;;5083194;28;20228;-66
2022/08/07 00:50:12;;;;;;;1.20;1.10;;;;;;;;;;5086250;28;20181;-66
2022/08/07 00:53:11;;;;;;;0.90;0.90;;;;;;;;;;5087671;28;20188;-66
2022/08/07 00:55:45;;;;;;;1.00;1.00;;;;;;;;;;5090819;28;20573;-66
2022/08/07 00:58:31;;;;;;;0.80;0.80;;;;;;;;;;5061359;28;20609;-66
2022/08/07 01:01:12;;;;;;;1.07;0.97;;;;;;;;;;5089855;28;20200;-66
2022/08/07 01:03:41;;;;;;;0.80;0.80;;;;;;;;;;5090378;28;20945;-66
2022/08/07 01:06:28;;;;;;;1.10;1.10;;;;;;;;;;5060444;28;20220;-67
2022/08/07 01:09:01;;;;;;;1.00;1.00;;;;;;;;;;5088977;28;20213;-66
2022/08/07 01:11:32;;;;;;;0.90;0.90;;;;;;;;;;5087962;28;20681;-66
2022/08/07 01:14:30;;;;;;;0.97;0.90;;;;;;;;;;5058982;28;20182;-66
2022/08/07 01:17:04;;;;;;;1.20;1.10;;;;;;;;;;5089982;28;20937;-66
2022/08/07 01:19:37;;;;;;;0.80;0.80;;;;;;;;;;5085536;28;20208;-66
2022/08/07 01:22:23;;;;;;;0.90;0.90;;;;;;;;;;5089388;28;20212;-66
2022/08/07 01:24:57;;;;;;;1.07;0.90;;;;;;;;;;5098971;28;20200;-66
2022/08/07 01:27:29;;;;;;;0.90;0.90;;;;;;;;;;5076539;28;20215;-66
2022/08/07 01:30:04;;;;;;;0.80;0.80;;;;;;;;;;5086326;28;20197;-66
2022/08/07 01:32:35;;;;;;;0.70;0.70;;;;;;;;;;5090438;28;20193;-66
2022/08/07 01:35:16;;;;;;;0.80;0.80;;;;;;;;;;5079159;28;20208;-66
2022/08/07 01:37:52;;;;;;;1.43;0.90;;;;;;;;;;5073786;28;20523;-66
2022/08/07 01:40:29;;;;;;;0.90;0.80;;;;;;;;;;5069221;28;20190;-66
2022/08/07 01:42:58;;;;;;;1.00;0.93;;;;;;;;;;5057867;28;20233;-66
2022/08/07 01:45:34;;;;;;;0.87;0.87;;;;;;;;;;5066985;28;20251;-65
2022/08/07 01:48:09;;;;;;;0.80;0.70;;;;;;;;;;5067472;28;20219;-65
2022/08/07 01:51:04;;;;;;;1.83;0.80;;;;;;;;;;5069739;28;20667;-66
2022/08/07 01:53:58;;;;;;;0.80;0.80;;;;;;;;;;5060400;28;20395;-66
2022/08/07 01:56:50;;;;;;;0.90;0.90;;;;;;;;;;5058092;28;20193;-66
2022/08/07 01:59:54;;;;;;;0.70;0.70;;;;;;;;;;5066279;28;20659;-66
2022/08/07 02:02:31;;;;;;;0.80;0.80;;;;;;;;;;5069211;28;20198;-66
2022/08/07 02:05:32;;;;;;;0.70;0.70;;;;;;;;;;5048147;28;20690;-66
2022/08/07 02:08:17;;;;;;;1.10;1.00;;;;;;;;;;5053810;28;20198;-66
2022/08/07 02:10:55;;;;;;;0.80;0.80;;;;;;;;;;5068544;28;20189;-66
2022/08/07 02:13:33;;;;;;;1.03;0.97;;;;;;;;;;5066400;28;20193;-66
2022/08/07 02:16:27;;;;;;;0.80;0.80;;;;;;;;;;5071289;28;20569;-66
2022/08/07 02:19:11;;;;;;;0.67;0.67;;;;;;;;;;5065952;28;20304;-66
2022/08/07 02:22:00;;;;;;;0.60;0.60;;;;;;;;;;5068830;28;20217;-66
2022/08/07 02:24:35;;;;;;;0.80;0.80;;;;;;;;;;5048896;28;20198;-66
2022/08/07 02:27:17;;;;;;;0.80;0.80;;;;;;;;;;5065966;28;20661;-66
2022/08/07 02:29:51;;;;;;;1.03;0.93;;;;;;;;;;5063759;28;20217;-66
2022/08/07 02:32:23;;;;;;;0.80;0.80;;;;;;;;;;5072176;28;20239;-66
2022/08/07 02:34:58;;;;;;;0.80;0.80;;;;;;;;;;5055327;28;20193;-66
2022/08/07 02:37:30;;;;;;;0.80;0.80;;;;;;;;;;5064274;28;20352;-65
2022/08/07 02:40:11;;;;;;;0.60;0.60;;;;;;;;;;5051341;28;20662;-66
2022/08/07 02:43:03;;;;;;;0.70;0.70;;;;;;;;;;5042148;28;20698;-66
2022/08/07 02:45:38;;;;;;;0.77;0.77;;;;;;;;;;5066118;28;20197;-66
2022/08/07 02:48:30;;;;;;;0.70;0.70;;;;;;;;;;5067953;28;20216;-66
2022/08/07 02:51:05;;;;;;;0.90;0.90;;;;;;;;;;5067931;28;20209;-67
2022/08/07 02:54:01;;;;;;;0.70;0.70;;;;;;;;;;5064355;28;20213;-66
2022/08/07 02:56:35;;;;;;;0.77;0.77;;;;;;;;;;5050037;28;20266;-66
2022/08/07 02:59:13;;;;;;;0.70;0.70;;;;;;;;;;5049099;28;20630;-66
2022/08/07 03:01:46;;;;;;;0.90;0.70;;;;;;;;;;5067541;28;20716;-66
2022/08/07 03:04:22;;;;;;;0.80;0.80;;;;;;;;;;5068033;28;20639;-66
2022/08/07 03:06:56;;;;;;;0.80;0.80;;;;;;;;;;5070808;28;20229;-66
2022/08/07 03:09:32;;;;;;;0.70;0.70;;;;;;;;;;5054690;28;20320;-66
2022/08/07 03:12:14;;;;;;;0.90;0.90;;;;;;;;;;5067516;28;20646;-66
2022/08/07 03:14:59;;;;;;;0.73;0.73;;;;;;;;;;5058015;28;20635;-66
2022/08/07 03:17:37;;;;;;;0.80;0.80;;;;;;;;;;5059238;28;20222;-66
2022/08/07 03:20:23;;;;;;;0.70;0.70;;;;;;;;;;5049513;28;20190;-66
2022/08/07 03:22:54;;;;;;;0.80;0.80;;;;;;;;;;5050119;28;20182;-66
2022/08/07 03:25:28;;;;;;;0.90;0.83;;;;;;;;;;5059564;28;20191;-67
2022/08/07 03:28:12;;;;;;;0.80;0.80;;;;;;;;;;5063973;28;20591;-66
2022/08/07 03:31:20;;;;;;;0.90;0.90;;;;;;;;;;5040995;28;20236;-66
2022/08/07 03:33:59;;;;;;;1.00;1.00;;;;;;;;;;5067803;28;20197;-66
2022/08/07 03:36:37;;;;;;;0.87;0.80;;;;;;;;;;5060631;28;20216;-66
2022/08/07 03:39:15;;;;;;;0.60;0.60;;;;;;;;;;5047027;28;20502;-66
2022/08/07 03:41:43;;;;;;;0.90;0.90;;;;;;;;;;5063461;28;20245;-66
2022/08/07 03:44:25;;;;;;;0.70;0.70;;;;;;;;;;5081474;28;20209;-66
2022/08/07 03:47:03;;;;;;;0.70;0.70;;;;;;;;;;5070658;28;20193;-66
2022/08/07 03:49:39;;;;;;;0.77;0.77;;;;;;;;;;5032120;28;20220;-66
2022/08/07 03:52:23;;;;;;;0.70;0.70;;;;;;;;;;5051299;28;20193;-66
2022/08/07 03:54:58;;;;;;;0.60;0.60;;;;;;;;;;5063383;28;20227;-66
2022/08/07 03:57:35;;;;;;;0.80;0.80;;;;;;;;;;5065082;28;20627;-66
2022/08/07 04:00:29;;;;;;;0.70;0.70;;;;;;;;;;5055801;28;20209;-66
2022/08/07 04:03:04;;;;;;;0.80;0.80;;;;;;;;;;5074795;28;20201;-66
2022/08/07 04:05:38;;;;;;;0.80;0.80;;;;;;;;;;5063724;28;20688;-66
2022/08/07 04:08:13;;;;;;;1.00;0.90;;;;;;;;;;5070454;28;20206;-66
2022/08/07 04:10:51;;;;;;;1.07;0.97;;;;;;;;;;5052562;28;20193;-66
2022/08/07 04:13:42;;;;;;;0.77;0.70;;;;;;;;;;5059935;28;20203;-66
2022/08/07 04:16:37;;;;;;;0.70;0.70;;;;;;;;;;5069830;28;20619;-66
2022/08/07 04:19:26;;;;;;;0.80;0.80;;;;;;;;;;5042465;28;20201;-66
2022/08/07 04:22:18;;;;;;;0.77;0.77;;;;;;;;;;5048514;28;20213;-66
2022/08/07 04:24:52;;;;;;;0.73;0.73;;;;;;;;;;5063640;28;20198;-66
2022/08/07 04:27:21;;;;;;;0.87;0.87;;;;;;;;;;5063986;28;20193;-66
2022/08/07 04:29:56;;;;;;;0.70;0.70;;;;;;;;;;5066957;28;20290;-66
2022/08/07 04:32:34;;;;;;;1.10;0.87;;;;;;;;;;5065898;28;20224;-66
2022/08/07 04:35:05;;;;;;;1.13;0.70;;;;;;;;;;5050260;28;20197;-66
2022/08/07 04:37:44;;;;;;;0.80;0.80;;;;;;;;;;5064680;28;20193;-66
2022/08/07 04:40:44;;;;;;;0.60;0.60;;;;;;;;;;5065809;28;20691;-67
2022/08/07 04:43:22;;;;;;;0.77;0.77;;;;;;;;;;5056452;28;20225;-66
2022/08/07 04:46:50;;;;;;;0.93;0.90;;;;;;;;;;5050779;28;20607;-66
2022/08/07 04:49:45;;;;;;;0.73;0.70;;;;;;;;;;5046723;28;20231;-66
2022/08/07 04:53:04;;;;;;;0.87;0.87;;;;;;;;;;5065900;28;20232;-66
2022/08/07 04:56:00;;;;;;;0.60;0.60;;;;;;;;;;4984986;28;20209;-66
2022/08/07 04:59:10;;;;;;;0.70;0.70;;;;;;;;;;4988874;28;20212;-66
2022/08/07 05:02:13;;;;;;;0.80;0.80;;;;;;;;;;4991688;28;20412;-66
2022/08/07 05:05:01;;;;;;;0.73;0.73;;;;;;;;;;4984891;28;20753;-66
2022/08/07 05:08:10;;;;;;;0.77;0.77;;;;;;;;;;4984099;28;20305;-66
2022/08/07 05:11:31;;;;;;;0.90;0.90;;;;;;;;;;4941829;28;20224;-66
2022/08/07 05:14:30;;;;;;;1.17;0.90;;;;;;;;;;4985394;28;20200;-66
2022/08/07 05:17:24;;;;;;;0.70;0.70;;;;;;;;;;4986535;28;20295;-66
2022/08/07 05:20:23;;;;;;;1.10;1.00;;;;;;;;;;4972429;28;20223;-66
2022/08/07 05:23:06;;;;;;;0.87;0.87;;;;;;;;;;4971220;28;20204;-67
2022/08/07 05:25:52;;;;;;;0.70;0.70;;;;;;;;;;5056760;28;20224;-66
2022/08/07 05:28:43;;;;;;;0.60;0.60;;;;;;;;;;5044871;28;20232;-66
2022/08/07 05:31:18;;;;;;;0.90;0.90;;;;;;;;;;5061126;28;20570;-66
2022/08/07 05:33:53;;;;;;;0.90;0.90;;;;;;;;;;5065604;28;20212;-66
2022/08/07 05:36:54;;;;;;;0.73;0.73;;;;;;;;;;5054156;28;20185;-66
2022/08/07 05:39:24;;;;;;;1.20;1.10;;;;;;;;;;5048015;28;20244;-66
2022/08/07 05:42:16;;;;;;;1.17;0.80;;;;;;;;;;5044647;28;20237;-66
2022/08/07 05:45:07;;;;;;;0.90;0.90;;;;;;;;;;5069829;28;20260;-66
2022/08/07 05:48:03;;;;;;;1.10;1.00;;;;;;;;;;5065436;28;20212;-66
2022/08/07 05:50:39;;;;;;;0.90;0.90;;;;;;;;;;5052909;28;20178;-65
2022/08/07 05:53:10;;;;;;;1.00;1.00;;;;;;;;;;5063360;28;20205;-66
2022/08/07 05:56:01;;;;;;;1.00;1.00;;;;;;;;;;5056987;28;20251;-66
2022/08/07 05:58:36;;;;;;;1.17;1.13;;;;;;;;;;5056801;28;20197;-66
2022/08/07 06:01:06;;;;;;;1.10;1.00;;;;;;;;;;5052209;28;20259;-66
2022/08/07 06:03:42;;;;;;;0.80;0.80;;;;;;;;;;5059801;28;20569;-66
2022/08/07 06:06:28;;;;;;;1.60;1.03;;;;;;;;;;5066009;28;20218;-66
2022/08/07 06:09:02;;;;;;;1.00;1.00;;;;;;;;;;5078252;28;20209;-66
2022/08/07 06:11:37;;;;;;;1.03;1.00;;;;;;;;;;5052052;28;20217;-66
2022/08/07 06:14:06;;;;;;;1.70;1.00;;;;;;;;;;5061999;28;20202;-66
2022/08/07 06:16:53;;;;;;;0.90;0.90;;;;;;;;;;5063182;28;20201;-66
2022/08/07 06:19:28;;;;;;;1.33;1.20;;;;;;;;;;5061332;28;20569;-66
2022/08/07 06:22:32;;;;;;;1.10;1.10;;;;;;;;;;5064412;28;20207;-66
2022/08/07 06:25:08;;;;;;;1.10;1.00;;;;;;;;;;5062642;28;20216;-66
2022/08/07 06:27:39;;;;;;;1.37;1.30;;;;;;;;;;5069307;28;20275;-66
2022/08/07 06:30:22;;;;;;;1.30;1.20;;;;;;;;;;5052696;28;20224;-66
2022/08/07 06:33:06;;;;;;;1.10;1.10;;;;;;;;;;5068891;28;20197;-66
2022/08/07 06:35:45;;;;;;;1.00;0.93;;;;;;;;;;5062147;28;20205;-65
2022/08/07 06:38:35;;;;;;;1.13;1.10;;;;;;;;;;5068284;28;20202;-65
2022/08/07 06:41:42;;;;;;;1.10;1.10;;;;;;;;;;5062404;28;20201;-66
2022/08/07 06:44:32;;;;;;;1.37;1.30;;;;;;;;;;5066269;28;20552;-66
2022/08/07 06:47:07;;;;;;;1.30;1.20;;;;;;;;;;5064970;28;20204;-66
2022/08/07 06:49:45;;;;;;;1.50;1.40;;;;;;;;;;5038736;28;20263;-65
2022/08/07 06:52:36;;;;;;;1.40;1.30;;;;;;;;;;5052447;28;20508;-65
2022/08/07 06:55:27;;;;;;;1.40;1.30;;;;;;;;;;5063587;28;20194;-66
2022/08/07 06:58:27;;;;;;;1.17;1.13;;;;;;;;;;5055186;28;20205;-66
2022/08/07 07:01:07;;;;;;;1.23;1.13;;;;;;;;;;5062709;28;20202;-65
2022/08/07 07:03:43;;;;;;;1.40;1.30;;;;;;;;;;5044014;28;20191;-66
2022/08/07 07:06:23;;;;;;;1.70;1.60;;;;;;;;;;5065043;28;20219;-66
2022/08/07 07:08:57;;;;;;;1.07;1.07;;;;;;;;;;5050574;28;20266;-66
2022/08/07 07:11:48;;;;;;;1.13;1.13;;;;;;;;;;5068469;28;20209;-65
2022/08/07 07:15:15;;;;;;;1.27;1.20;;;;;;;;;;5067784;28;20190;-65
2022/08/07 07:18:08;;;;;;;1.53;1.43;;;;;;;;;;5029435;28;20265;-65
2022/08/07 07:20:49;;;;;;;1.50;1.40;;;;;;;;;;5060695;28;20197;-65
2022/08/07 07:23:20;;;;;;;1.60;1.50;;;;;;;;;;5065037;28;20205;-66
2022/08/07 07:26:14;;;;;;;1.40;1.30;;;;;;;;;;5069718;28;20193;-66
2022/08/07 07:29:10;;;;;;;1.60;1.50;;;;;;;;;;5035364;28;20225;-66
2022/08/07 07:32:01;;;;;;;2.00;1.50;;;;;;;;;;5057228;28;20209;-67
2022/08/07 07:34:36;;;;;;;1.87;1.77;;;;;;;;;;5076399;28;20189;-66
2022/08/07 07:37:34;;;;;;;1.87;1.73;;;;;;;;;;5050833;28;20216;-67
2022/08/07 07:40:24;;;;;;;1.67;1.57;;;;;;;;;;5071398;28;20277;-67
2022/08/07 07:42:57;;;;;;;1.60;1.50;;;;;;;;;;5064346;28;20777;-67
2022/08/07 07:45:41;;;;;;;1.70;1.60;;;;;;;;;;5076647;28;20200;-67
2022/08/07 07:48:35;;;;;;;1.60;1.50;;;;;;;;;;5066482;28;20193;-67
2022/08/07 07:51:21;;;;;;;1.50;1.40;;;;;;;;;;5036332;28;20264;-67
2022/08/07 07:54:15;;;;;;;1.50;1.40;;;;;;;;;;5067321;28;20219;-67
2022/08/07 07:56:51;;;;;;;1.70;1.60;;;;;;;;;;5067308;28;20258;-67
2022/08/07 07:59:25;;;;;;;1.60;1.50;;;;;;;;;;5063455;28;20196;-67
2022/08/07 08:02:21;;;;;;;1.40;1.30;;;;;;;;;;5062781;28;20191;-66
2022/08/07 08:05:06;;;;;;;1.63;1.53;;;;;;;;;;5049108;28;20202;-66
2022/08/07 08:07:44;;;;;;;1.70;1.60;;;;;;;;;;5023352;28;20215;-67
2022/08/07 08:10:32;;;;;;;1.60;1.50;;;;;;;;;;5068373;28;20221;-67
2022/08/07 08:13:07;;;;;;;1.40;1.30;;;;;;;;;;5065865;28;20664;-69
2022/08/07 08:15:45;;;;;;;1.40;1.30;;;;;;;;;;5054579;28;20635;-67
2022/08/07 08:18:29;;;;;;;1.40;1.30;;;;;;;;;;5047484;28;20206;-67
2022/08/07 08:27:03;;;;;;;1.40;1.30;;;;;;;;;;5051246;28;20619;-68
2022/08/07 08:27:39;;;;;;;1.63;1.53;;;;;;;;;;5064261;28;20917;-68
2022/08/07 08:30:27;;;;;;;1.63;1.53;;;;;;;;;;5060050;28;20244;-67
2022/08/07 08:33:06;;;;;;;1.70;1.60;;;;;;;;;;5050687;28;20181;-66
2022/08/07 08:35:50;;;;;;;1.53;1.40;;;;;;;;;;5051327;28;20205;-67
2022/08/07 08:38:26;;;;;;;1.50;1.40;;;;;;;;;;5046559;28;20198;-66
2022/08/07 08:41:27;;;;;;;1.60;1.50;;;;;;;;;;5063086;28;20181;-66
2022/08/07 08:44:44;;;;;;;1.60;1.50;;;;;;;;;;5066780;28;20215;-66
2022/08/07 08:47:34;;;;;;;2.10;1.90;;;;;;;;;;5061652;28;20202;-67
2022/08/07 08:50:26;;;;;;;1.63;1.30;;;;;;;;;;5066778;28;20206;-67
2022/08/07 08:53:43;;;;;;;1.70;1.50;;;;;;;;;;5062903;28;20186;-66
2022/08/07 08:56:20;;;;;;;1.40;1.30;;;;;;;;;;4965688;28;20209;-67
2022/08/07 08:59:19;;;;;;;1.80;1.70;;;;;;;;;;4962105;28;20219;-67
2022/08/07 09:02:14;;;;;;;1.77;1.60;;;;;;;;;;4954954;28;20820;-66
2022/08/07 09:05:21;;;;;;;1.77;1.53;;;;;;;;;;4964213;28;20213;-67
2022/08/07 09:08:19;;;;;;;1.70;1.60;;;;;;;;;;4961246;28;20682;-66
2022/08/07 09:11:14;;;;;;;1.60;1.33;;;;;;;;;;4962120;28;20248;-66
2022/08/07 09:14:28;;;;;;;1.50;1.30;;;;;;;;;;5064468;28;20206;-68
2022/08/07 09:17:24;;;;;;;1.30;1.20;;;;;;;;;;5058101;28;20206;-69
2022/08/07 09:20:21;;;;;;;1.43;1.30;;;;;;;;;;5074997;28;20289;-68
2022/08/07 09:23:22;;;;;;;2.93;1.20;;;;;;;;;;5074006;28;20670;-68
2022/08/07 09:26:24;;;;;;;1.40;1.30;;;;;;;;;;5069602;28;20331;-69
2022/08/07 09:28:58;;;;;;;1.10;1.10;;;;;;;;;;5069627;28;20221;-68
2022/08/07 09:32:08;;;;;;;1.37;1.27;;;;;;;;;;5043551;28;20619;-69
2022/08/07 09:35:07;;;;;;;1.00;1.00;;;;;;;;;;5064753;28;20194;-68
2022/08/07 09:38:06;;;;;;;1.27;1.10;;;;;;;;;;5068189;28;20388;-68
2022/08/07 09:41:00;;;;;;;1.30;1.20;;;;;;;;;;5051744;28;20658;-69
2022/08/07 09:43:46;;;;;;;1.67;1.30;;;;;;;;;;5063137;28;20350;-69
2022/08/07 09:47:01;;;;;;;1.20;1.10;;;;;;;;;;5064277;28;20193;-69
2022/08/07 09:50:17;;;;;;;1.40;1.30;;;;;;;;;;4983518;28;20338;-69
2022/08/07 09:52:52;;;;;;;1.60;1.50;;;;;;;;;;4985099;28;20200;-69
2022/08/07 09:55:39;;;;;;;1.43;1.27;;;;;;;;;;4996689;28;20406;-69
2022/08/07 09:58:30;;;;;;;1.50;1.40;;;;;;;;;;4989151;28;20298;-68
2022/08/07 10:01:08;;;;;;;1.37;1.27;;;;;;;;;;5053182;28;20214;-69
2022/08/07 10:04:05;;;;;;;1.20;1.10;;;;;;;;;;5069391;28;20194;-69
2022/08/07 10:07:01;;;;;;;1.13;1.10;;;;;;;;;;5061939;28;20238;-69
2022/08/07 10:10:15;;;;;;;1.00;0.90;;;;;;;;;;5061855;28;20271;-68
2022/08/07 10:12:52;;;;;;;1.20;1.10;;;;;;;;;;5065832;28;20194;-68
2022/08/07 10:15:46;;;;;;;1.73;1.10;;;;;;;;;;5066725;28;20232;-68
2022/08/07 10:18:40;;;;;;;1.50;1.27;;;;;;;;;;5046786;28;20232;-68
2022/08/07 10:21:28;;;;;;;1.87;1.37;;;;;;;;;;5068099;28;20202;-68
2022/08/07 10:24:37;;;;;;;1.10;1.00;;;;;;;;;;5064824;28;20194;-68
2022/08/07 10:27:24;;;;;;;1.00;1.00;;;;;;;;;;5068601;28;20208;-68
2022/08/07 10:30:03;;;;;;;1.23;1.10;;;;;;;;;;5037488;28;20252;-68
2022/08/07 10:32:58;;;;;;;0.93;0.93;;;;;;;;;;5068666;28;20212;-68
2022/08/07 10:35:57;;;;;;;1.23;1.13;;;;;;;;;;5070127;28;20278;-68
2022/08/07 10:38:53;;;;;;;1.43;1.27;;;;;;;;;;5064304;28;20224;-69
2022/08/07 10:41:30;;;;;;;1.73;1.10;;;;;;;;;;5044075;28;20619;-68
2022/08/07 10:44:35;;;;;;;1.10;1.00;;;;;;;;;;5049077;28;20242;-69
2022/08/07 10:47:25;;;;;;;1.63;1.30;;;;;;;;;;5050912;28;20666;-69
2022/08/07 10:50:29;;;;;;;1.00;1.00;;;;;;;;;;5047618;28;20758;-69
2022/08/07 10:53:17;;;;;;;1.03;1.00;;;;;;;;;;5048167;28;20339;-69
2022/08/07 10:56:08;;;;;;;1.00;1.00;;;;;;;;;;5037536;28;20202;-69
2022/08/07 10:59:05;;;;;;;1.13;1.03;;;;;;;;;;5019393;28;20202;-68
2022/08/07 11:01:55;;;;;;;1.30;1.20;;;;;;;;;;5046985;28;20192;-68
2022/08/07 11:04:48;;;;;;;1.37;1.20;;;;;;;;;;5056535;28;20648;-69
2022/08/07 11:07:48;;;;;;;1.00;0.93;;;;;;;;;;5053039;28;20376;-69
2022/08/07 11:10:46;;;;;;;1.30;1.20;;;;;;;;;;5047508;28;20388;-69
2022/08/07 11:13:30;;;;;;;1.10;1.00;;;;;;;;;;5045554;28;20198;-69
2022/08/07 11:16:30;;;;;;;1.20;1.10;;;;;;;;;;5047909;28;20198;-69
2022/08/07 11:19:16;;;;;;;1.57;1.30;;;;;;;;;;5039609;28;20214;-69
2022/08/07 11:22:14;;;;;;;1.23;1.13;;;;;;;;;;5046667;28;20190;-69
2022/08/07 11:25:15;;;;;;;1.30;1.20;;;;;;;;;;5047723;28;20197;-69
2022/08/07 11:28:10;;;;;;;1.20;1.10;;;;;;;;;;5047501;28;20627;-69
2022/08/07 11:31:22;;;;;;;1.40;1.30;;;;;;;;;;5043496;28;20725;-68
2022/08/07 11:34:03;;;;;;;1.70;1.40;;;;;;;;;;5000359;28;20204;-69
2022/08/07 11:36:55;;;;;;;1.70;1.30;;;;;;;;;;5004444;28;20215;-69
2022/08/07 11:39:45;;;;;;;1.40;1.30;;;;;;;;;;5002404;28;20219;-68
2022/08/07 11:42:41;;;;;;;1.40;1.30;;;;;;;;;;5006603;28;20706;-69
2022/08/07 11:45:34;;;;;;;1.40;1.30;;;;;;;;;;5022562;28;20213;-69
2022/08/07 11:48:30;;;;;;;1.33;1.23;;;;;;;;;;5018915;28;20288;-68
2022/08/07 11:51:33;;;;;;;1.40;1.30;;;;;;;;;;5007352;28;20218;-69
2022/08/07 11:54:25;;;;;;;1.30;1.20;;;;;;;;;;5021504;28;20323;-68
2022/08/07 11:57:14;;;;;;;1.10;1.10;;;;;;;;;;5003011;28;20203;-69
2022/08/07 12:00:01;;;;;;;1.20;1.10;;;;;;;;;;5025043;28;20415;-69
2022/08/07 12:03:04;;;;;;;1.33;1.23;;;;;;;;;;5024716;28;20202;-69
2022/08/07 12:06:08;;;;;;;1.57;1.40;;;;;;;;;;5036492;28;20363;-68
2022/08/07 12:09:09;;;;;;;1.80;1.40;;;;;;;;;;5054040;28;20205;-69
2022/08/07 12:12:03;;;;;;;1.40;1.30;;;;;;;;;;5070948;28;20227;-69
2022/08/07 12:15:10;;;;;;;1.40;1.30;;;;;;;;;;5066810;28;20205;-69
2022/08/07 12:18:09;;;;;;;1.37;1.13;;;;;;;;;;5053044;28;20902;-69
2022/08/07 12:20:55;;;;;;;2.10;1.30;;;;;;;;;;5066859;28;20194;-69
2022/08/07 12:23:26;;;;;;;1.53;1.43;;;;;;;;;;5043487;28;20190;-69
2022/08/07 12:26:37;;;;;;;1.37;1.27;;;;;;;;;;5067080;28;20200;-68
2022/08/07 12:29:38;;;;;;;1.93;1.40;;;;;;;;;;5060351;28;20243;-68
2022/08/07 12:32:16;;;;;;;1.60;1.50;;;;;;;;;;5072563;28;20646;-69
2022/08/07 12:34:47;;;;;;;1.43;1.33;;;;;;;;;;5050827;28;20200;-68
2022/08/07 12:37:26;;;;;;;1.73;1.43;;;;;;;;;;5047833;28;20197;-69
2022/08/07 12:40:19;;;;;;;1.80;1.20;;;;;;;;;;5045089;28;20235;-68
2022/08/07 12:43:12;;;;;;;1.30;1.20;;;;;;;;;;5048104;28;20229;-69
2022/08/07 12:46:25;;;;;;;2.00;1.80;;;;;;;;;;5066646;28;20193;-69
2022/08/07 12:49:19;;;;;;;1.60;1.50;;;;;;;;;;5056302;28;20212;-69
2022/08/07 12:52:13;;;;;;;1.50;1.40;;;;;;;;;;5050725;28;20654;-69
2022/08/07 12:55:06;;;;;;;1.33;1.23;;;;;;;;;;5050230;28;20220;-68
2022/08/07 12:57:45;;;;;;;1.50;1.40;;;;;;;;;;5060742;28;20208;-68
2022/08/07 13:00:52;;;;;;;1.93;1.30;;;;;;;;;;5058675;28;20220;-69
2022/08/07 13:03:42;;;;;;;1.40;1.30;;;;;;;;;;5052789;28;20186;-69
2022/08/07 13:06:47;;;;;;;1.30;1.20;;;;;;;;;;5049178;28;20229;-68
2022/08/07 13:09:47;;;;;;;1.30;1.20;;;;;;;;;;5052044;28;20213;-69
2022/08/07 13:12:55;;;;;;;1.77;1.57;;;;;;;;;;5054373;28;20186;-69
2022/08/07 13:15:29;;;;;;;1.60;1.50;;;;;;;;;;5065489;28;20772;-69
2022/08/07 13:18:18;;;;;;;1.60;1.43;;;;;;;;;;5070014;28;20590;-69
2022/08/07 13:21:30;;;;;;;1.47;1.20;;;;;;;;;;5070191;28;20204;-69
2022/08/07 13:24:24;;;;;;;1.40;1.30;;;;;;;;;;4979577;28;20630;-69
2022/08/07 13:27:13;;;;;;;1.20;1.10;;;;;;;;;;4969012;28;20216;-69
2022/08/07 13:30:01;;;;;;;1.60;1.50;;;;;;;;;;4941976;28;20244;-69
2022/08/07 13:32:46;;;;;;;1.70;1.47;;;;;;;;;;4968205;28;20737;-69
2022/08/07 13:35:23;;;;;;;1.63;1.53;;;;;;;;;;4965864;28;20197;-69
2022/08/07 13:38:33;;;;;;;1.50;1.40;;;;;;;;;;4956477;28;20219;-69
2022/08/07 13:41:10;;;;;;;1.50;1.40;;;;;;;;;;4968077;28;20276;-68
2022/08/07 13:43:41;;;;;;;1.40;1.30;;;;;;;;;;4955757;28;20678;-69
2022/08/07 13:46:22;;;;;;;1.50;1.40;;;;;;;;;;4969359;28;20243;-68
2022/08/07 13:49:04;;;;;;;1.43;1.33;;;;;;;;;;4967568;28;20197;-69
2022/08/07 13:51:56;;;;;;;1.67;1.57;;;;;;;;;;4967430;28;20593;-68
2022/08/07 13:54:51;;;;;;;1.30;1.20;;;;;;;;;;4964017;28;20205;-68
2022/08/07 13:57:26;;;;;;;1.40;1.20;;;;;;;;;;4988310;28;20218;-69
2022/08/07 14:00:06;;;;;;;1.20;1.20;;;;;;;;;;5029793;28;20266;-69
2022/08/07 14:02:55;;;;;;;1.50;1.40;;;;;;;;;;5068335;28;20209;-69
2022/08/07 14:05:39;;;;;;;1.40;1.30;;;;;;;;;;5052058;28;20245;-68
2022/08/07 14:08:16;;;;;;;1.80;1.50;;;;;;;;;;5068927;28;20201;-68
2022/08/07 14:10:48;;;;;;;1.63;1.50;;;;;;;;;;5052392;28;20206;-69
2022/08/07 14:13:45;;;;;;;1.60;1.40;;;;;;;;;;5045248;28;20734;-69
2022/08/07 14:16:18;;;;;;;1.40;1.30;;;;;;;;;;5061481;28;20344;-69
2022/08/07 14:18:59;;;;;;;1.53;1.43;;;;;;;;;;5058363;28;20206;-68
2022/08/07 14:21:42;;;;;;;1.50;1.40;;;;;;;;;;5049346;28;20200;-69
2022/08/07 14:24:38;;;;;;;1.40;1.30;;;;;;;;;;5060528;28;20195;-69
2022/08/07 14:27:10;;;;;;;1.40;1.30;;;;;;;;;;5066606;28;20221;-69
2022/08/07 14:30:03;;;;;;;1.50;1.40;;;;;;;;;;5048592;28;20217;-68
2022/08/07 14:32:54;;;;;;;2.60;1.53;;;;;;;;;;5054047;28;20292;-69
2022/08/07 14:35:28;;;;;;;1.57;1.30;;;;;;;;;;5063295;28;20201;-69
2022/08/07 14:38:14;;;;;;;1.20;1.20;;;;;;;;;;5054080;28;20574;-69
2022/08/07 14:41:02;;;;;;;1.27;1.17;;;;;;;;;;5068365;28;20189;-68
2022/08/07 14:43:33;;;;;;;1.30;1.20;;;;;;;;;;5058498;28;20715;-68
2022/08/07 14:46:30;;;;;;;1.70;1.60;;;;;;;;;;5083221;28;20208;-68
2022/08/07 14:49:03;;;;;;;1.20;1.20;;;;;;;;;;5088326;28;20611;-67
2022/08/07 14:51:59;;;;;;;1.27;1.17;;;;;;;;;;5088476;28;20216;-68
2022/08/07 14:54:41;;;;;;;1.73;1.20;;;;;;;;;;5080174;28;20208;-68
2022/08/07 14:57:13;;;;;;;1.57;1.40;;;;;;;;;;5087538;28;20261;-68
2022/08/07 14:59:51;;;;;;;1.57;1.30;;;;;;;;;;5088476;28;20529;-68
2022/08/07 15:02:35;;;;;;;1.37;1.27;;;;;;;;;;5073496;28;20201;-67
2022/08/07 15:05:06;;;;;;;1.50;1.40;;;;;;;;;;5071374;28;20609;-68
2022/08/07 15:07:48;;;;;;;1.67;1.30;;;;;;;;;;5072584;28;20189;-67
2022/08/07 15:10:22;;;;;;;2.07;1.37;;;;;;;;;;5071563;28;20634;-68
2022/08/07 15:13:17;;;;;;;1.60;1.50;;;;;;;;;;5087772;28;20577;-68
2022/08/07 15:15:53;;;;;;;1.50;1.40;;;;;;;;;;5066061;28;20584;-68
2022/08/07 15:18:25;;;;;;;1.33;1.23;;;;;;;;;;5084238;28;20232;-68
2022/08/07 15:21:06;;;;;;;1.50;1.40;;;;;;;;;;5088147;28;20589;-69
2022/08/07 15:24:02;;;;;;;1.80;1.40;;;;;;;;;;5080340;28;20193;-69
2022/08/07 15:27:13;;;;;;;1.30;1.20;;;;;;;;;;5069745;28;20197;-70
2022/08/07 15:29:48;;;;;;;1.47;1.33;;;;;;;;;;5082078;28;20224;-68
2022/08/07 15:32:48;;;;;;;1.90;1.33;;;;;;;;;;5087852;28;20220;-68
2022/08/07 15:35:52;;;;;;;1.63;1.50;;;;;;;;;;5085053;28;20194;-68
2022/08/07 15:38:32;;;;;;;1.37;1.20;;;;;;;;;;5087437;28;20189;-68
2022/08/07 15:41:25;;;;;;;1.40;1.30;;;;;;;;;;5081445;28;20752;-68
2022/08/07 15:44:19;;;;;;;1.40;1.30;;;;;;;;;;5066498;28;20221;-68
2022/08/07 15:46:55;;;;;;;1.60;1.50;;;;;;;;;;5066664;28;20197;-70
2022/08/07 15:49:51;;;;;;;1.47;1.30;;;;;;;;;;5058342;28;20213;-69
2022/08/07 15:52:45;;;;;;;1.20;1.20;;;;;;;;;;5079106;28;20213;-68
2022/08/07 15:55:21;;;;;;;1.23;1.13;;;;;;;;;;5064697;28;20188;-69
2022/08/07 15:58:15;;;;;;;1.77;1.67;;;;;;;;;;5052479;28;20209;-68
2022/08/07 16:00:51;;;;;;;1.57;1.37;;;;;;;;;;5067499;28;20181;-68
2022/08/07 16:03:27;;;;;;;1.57;1.33;;;;;;;;;;5047849;28;20236;-69
2022/08/07 16:06:27;;;;;;;1.50;1.40;;;;;;;;;;5054406;28;20213;-68
2022/08/07 16:09:03;;;;;;;1.73;1.63;;;;;;;;;;5050199;28;20190;-68
2022/08/07 16:11:53;;;;;;;1.53;1.43;;;;;;;;;;5069700;28;20362;-69
2022/08/07 16:14:42;;;;;;;1.30;1.20;;;;;;;;;;5066954;28;20423;-68
2022/08/07 16:17:33;;;;;;;1.40;1.30;;;;;;;;;;5070128;28;20213;-69
2022/08/07 16:20:44;;;;;;;1.40;1.30;;;;;;;;;;5072861;28;20779;-69
2022/08/07 16:23:47;;;;;;;1.60;1.50;;;;;;;;;;5062751;28;20212;-68
2022/08/07 16:26:34;;;;;;;1.77;1.67;;;;;;;;;;5066945;28;20629;-70
2022/08/07 16:29:09;;;;;;;1.50;1.40;;;;;;;;;;5066699;28;20197;-69
2022/08/07 16:32:13;;;;;;;1.40;1.30;;;;;;;;;;5063633;28;20817;-68
2022/08/07 16:35:13;;;;;;;1.63;1.20;;;;;;;;;;5044093;28;20217;-68
2022/08/07 16:38:05;;;;;;;1.50;1.40;;;;;;;;;;5066207;28;20650;-69
2022/08/07 16:40:49;;;;;;;1.50;1.40;;;;;;;;;;5070705;28;20581;-70
2022/08/07 16:43:35;;;;;;;1.40;1.30;;;;;;;;;;5050222;28;21213;-69
2022/08/07 16:46:45;;;;;;;1.53;1.43;;;;;;;;;;5059637;28;20266;-69